sensor_id;sensor_type;location;lat;lon;timestamp;P1;durP1;ratioP1;P2;durP2;ratioP2
1428;SDS011;708;51.442;7.016;2022-12-20T00:00:51;3.95;;;2.90;;
1428;SDS011;708;51.442;7.016;2022-12-20T00:03:18;3.40;;;2.80;;
1428;SDS011;708;51.442;7.016;2022-12-20T00:05:45;2.95;;;2.60;;
1428;SDS011;708;51.442;7.016;2022-12-20T00:08:12;4.40;;;3.03;;
1428;SDS011;708;51.442;7.016;2022-12-20T00:10:39;3.40;;;2.88;;
1428;SDS011;708;51.442;7.016;2022-12-20T00:13:08;2.92;;;2.00;;
1428;SDS011;708;51.442;7.016;2022-12-20T00:15:37;4.13;;;2.70;;
1428;SDS011;708;51.442;7.016;2022-12-20T00:18:05;4.32;;;2.67;;
1428;SDS011;708;51.442;7.016;2022-12-20T00:20:32;4.47;;;2.58;;
1428;SDS011;708;51.442;7.016;2022-12-20T00:22:59;2.97;;;2.33;;
1428;SDS011;708;51.442;7.016;2022-12-20T00:25:26;2.75;;;2.20;;
1428;SDS011;708;51.442;7.016;2022-12-20T00:27:52;2.60;;;2.40;;
1428;SDS011;708;51.442;7.016;2022-12-20T00:30:19;4.53;;;2.17;;
1428;SDS011;708;51.442;7.016;2022-12-20T00:32:46;3.30;;;2.20;;
1428;SDS011;708;51.442;7.016;2022-12-20T00:35:14;4.20;;;2.53;;
1428;SDS011;708;51.442;7.016;2022-12-20T00:37:41;3.67;;;3.08;;
1428;SDS011;708;51.442;7.016;2022-12-20T00:40:08;3.03;;;2.15;;
1428;SDS011;708;51.442;7.016;2022-12-20T00:42:35;5.70;;;3.85;;
1428;SDS011;708;51.442;7.016;2022-12-20T00:45:02;8.20;;;2.10;;
1428;SDS011;708;51.442;7.016;2022-12-20T00:47:29;4.07;;;2.40;;
1428;SDS011;708;51.442;7.016;2022-12-20T00:49:55;6.93;;;3.05;;
1428;SDS011;708;51.442;7.016;2022-12-20T00:52:23;3.38;;;2.15;;
1428;SDS011;708;51.442;7.016;2022-12-20T00:54:50;3.67;;;1.98;;
1428;SDS011;708;51.442;7.016;2022-12-20T00:57:17;2.50;;;1.88;;
1428;SDS011;708;51.442;7.016;2022-12-20T00:59:44;2.88;;;2.10;;
1428;SDS011;708;51.442;7.016;2022-12-20T01:02:10;2.55;;;1.98;;
1428;SDS011;708;51.442;7.016;2022-12-20T01:04:37;4.95;;;2.28;;
1428;SDS011;708;51.442;7.016;2022-12-20T01:07:04;5.53;;;2.80;;
1428;SDS011;708;51.442;7.016;2022-12-20T01:09:32;2.53;;;2.20;;
1428;SDS011;708;51.442;7.016;2022-12-20T01:11:59;4.53;;;2.40;;
1428;SDS011;708;51.442;7.016;2022-12-20T01:14:25;3.20;;;2.50;;
1428;SDS011;708;51.442;7.016;2022-12-20T01:16:52;2.72;;;2.45;;
1428;SDS011;708;51.442;7.016;2022-12-20T01:19:19;4.00;;;2.67;;
1428;SDS011;708;51.442;7.016;2022-12-20T01:21:45;2.85;;;2.10;;
1428;SDS011;708;51.442;7.016;2022-12-20T01:24:13;3.25;;;2.42;;
1428;SDS011;708;51.442;7.016;2022-12-20T01:26:42;3.45;;;2.83;;
1428;SDS011;708;51.442;7.016;2022-12-20T01:29:10;2.72;;;2.40;;
1428;SDS011;708;51.442;7.016;2022-12-20T01:31:38;3.25;;;2.55;;
1428;SDS011;708;51.442;7.016;2022-12-20T01:34:05;3.58;;;2.40;;
1428;SDS011;708;51.442;7.016;2022-12-20T01:36:32;4.55;;;2.50;;
1428;SDS011;708;51.442;7.016;2022-12-20T01:39:03;2.65;;;2.05;;
1428;SDS011;708;51.442;7.016;2022-12-20T01:41:32;3.78;;;2.67;;
1428;SDS011;708;51.442;7.016;2022-12-20T01:44:02;2.92;;;2.60;;
1428;SDS011;708;51.442;7.016;2022-12-20T01:46:31;3.88;;;2.25;;
1428;SDS011;708;51.442;7.016;2022-12-20T01:49:01;4.85;;;3.20;;
1428;SDS011;708;51.442;7.016;2022-12-20T01:51:34;3.40;;;2.30;;
1428;SDS011;708;51.442;7.016;2022-12-20T01:54:04;4.93;;;2.60;;
1428;SDS011;708;51.442;7.016;2022-12-20T01:56:35;6.28;;;2.60;;
1428;SDS011;708;51.442;7.016;2022-12-20T01:59:05;4.07;;;2.78;;
1428;SDS011;708;51.442;7.016;2022-12-20T02:01:33;3.67;;;2.42;;
1428;SDS011;708;51.442;7.016;2022-12-20T02:04:00;3.53;;;2.85;;
1428;SDS011;708;51.442;7.016;2022-12-20T02:06:27;5.38;;;2.90;;
1428;SDS011;708;51.442;7.016;2022-12-20T02:08:55;4.28;;;2.78;;
1428;SDS011;708;51.442;7.016;2022-12-20T02:11:31;3.85;;;2.60;;
1428;SDS011;708;51.442;7.016;2022-12-20T02:14:16;3.00;;;2.03;;
1428;SDS011;708;51.442;7.016;2022-12-20T02:16:56;3.67;;;2.75;;
1428;SDS011;708;51.442;7.016;2022-12-20T02:22:30;5.25;;;2.45;;
1428;SDS011;708;51.442;7.016;2022-12-20T02:25:21;2.85;;;2.55;;
1428;SDS011;708;51.442;7.016;2022-12-20T02:28:06;3.70;;;2.40;;
1428;SDS011;708;51.442;7.016;2022-12-20T02:30:45;3.28;;;2.80;;
1428;SDS011;708;51.442;7.016;2022-12-20T02:33:18;3.92;;;2.90;;
1428;SDS011;708;51.442;7.016;2022-12-20T02:35:47;2.97;;;2.60;;
1428;SDS011;708;51.442;7.016;2022-12-20T02:38:25;6.03;;;2.70;;
1428;SDS011;708;51.442;7.016;2022-12-20T02:40:55;4.95;;;2.95;;
1428;SDS011;708;51.442;7.016;2022-12-20T02:43:24;3.00;;;2.55;;
1428;SDS011;708;51.442;7.016;2022-12-20T02:46:11;3.10;;;2.80;;
1428;SDS011;708;51.442;7.016;2022-12-20T02:48:39;4.22;;;2.47;;
1428;SDS011;708;51.442;7.016;2022-12-20T02:51:07;4.90;;;3.03;;
1428;SDS011;708;51.442;7.016;2022-12-20T02:53:35;3.38;;;2.78;;
1428;SDS011;708;51.442;7.016;2022-12-20T02:56:04;4.60;;;3.30;;
1428;SDS011;708;51.442;7.016;2022-12-20T02:58:39;4.03;;;3.42;;
1428;SDS011;708;51.442;7.016;2022-12-20T03:01:15;4.35;;;3.20;;
1428;SDS011;708;51.442;7.016;2022-12-20T03:03:46;3.10;;;2.58;;
1428;SDS011;708;51.442;7.016;2022-12-20T03:06:13;3.42;;;3.13;;
1428;SDS011;708;51.442;7.016;2022-12-20T03:08:40;6.95;;;3.65;;
1428;SDS011;708;51.442;7.016;2022-12-20T03:11:07;4.07;;;3.08;;
1428;SDS011;708;51.442;7.016;2022-12-20T03:13:34;4.20;;;3.20;;
1428;SDS011;708;51.442;7.016;2022-12-20T03:16:01;3.60;;;3.00;;
1428;SDS011;708;51.442;7.016;2022-12-20T03:18:29;4.43;;;4.00;;
1428;SDS011;708;51.442;7.016;2022-12-20T03:20:56;5.38;;;3.60;;
1428;SDS011;708;51.442;7.016;2022-12-20T03:23:22;3.85;;;3.28;;
1428;SDS011;708;51.442;7.016;2022-12-20T03:25:49;3.53;;;2.92;;
1428;SDS011;708;51.442;7.016;2022-12-20T03:28:16;4.45;;;3.55;;
1428;SDS011;708;51.442;7.016;2022-12-20T03:30:43;4.63;;;4.13;;
1428;SDS011;708;51.442;7.016;2022-12-20T03:33:10;6.25;;;3.42;;
1428;SDS011;708;51.442;7.016;2022-12-20T03:35:38;5.85;;;3.50;;
1428;SDS011;708;51.442;7.016;2022-12-20T03:38:05;4.25;;;2.95;;
1428;SDS011;708;51.442;7.016;2022-12-20T03:40:32;3.15;;;2.60;;
1428;SDS011;708;51.442;7.016;2022-12-20T03:42:58;5.45;;;4.22;;
1428;SDS011;708;51.442;7.016;2022-12-20T03:45:25;4.97;;;3.50;;
1428;SDS011;708;51.442;7.016;2022-12-20T03:47:52;4.57;;;3.63;;
1428;SDS011;708;51.442;7.016;2022-12-20T03:50:18;5.80;;;2.90;;
1428;SDS011;708;51.442;7.016;2022-12-20T03:52:47;5.15;;;3.20;;
1428;SDS011;708;51.442;7.016;2022-12-20T03:55:14;4.80;;;3.90;;
1428;SDS011;708;51.442;7.016;2022-12-20T03:57:40;5.15;;;3.72;;
1428;SDS011;708;51.442;7.016;2022-12-20T04:00:07;4.53;;;3.80;;
1428;SDS011;708;51.442;7.016;2022-12-20T04:02:36;5.45;;;3.83;;
1428;SDS011;708;51.442;7.016;2022-12-20T04:05:03;4.10;;;3.58;;
1428;SDS011;708;51.442;7.016;2022-12-20T04:07:30;6.20;;;4.13;;
1428;SDS011;708;51.442;7.016;2022-12-20T04:09:58;5.47;;;3.95;;
1428;SDS011;708;51.442;7.016;2022-12-20T04:12:25;4.10;;;3.70;;
1428;SDS011;708;51.442;7.016;2022-12-20T04:14:52;5.40;;;3.47;;
1428;SDS011;708;51.442;7.016;2022-12-20T04:17:18;4.75;;;3.40;;
1428;SDS011;708;51.442;7.016;2022-12-20T04:19:45;3.60;;;3.00;;
1428;SDS011;708;51.442;7.016;2022-12-20T04:22:12;6.45;;;3.65;;
1428;SDS011;708;51.442;7.016;2022-12-20T04:24:38;4.25;;;3.80;;
1428;SDS011;708;51.442;7.016;2022-12-20T04:27:06;4.00;;;3.45;;
1428;SDS011;708;51.442;7.016;2022-12-20T04:29:33;5.95;;;4.18;;
1428;SDS011;708;51.442;7.016;2022-12-20T04:32:00;6.10;;;3.38;;
1428;SDS011;708;51.442;7.016;2022-12-20T04:34:27;3.17;;;2.78;;
1428;SDS011;708;51.442;7.016;2022-12-20T04:36:53;4.80;;;2.95;;
1428;SDS011;708;51.442;7.016;2022-12-20T04:39:20;4.78;;;3.95;;
1428;SDS011;708;51.442;7.016;2022-12-20T04:41:47;4.43;;;3.45;;
1428;SDS011;708;51.442;7.016;2022-12-20T04:44:15;16.92;;;3.90;;
1428;SDS011;708;51.442;7.016;2022-12-20T04:46:42;5.70;;;3.40;;
1428;SDS011;708;51.442;7.016;2022-12-20T04:49:08;4.50;;;2.88;;
1428;SDS011;708;51.442;7.016;2022-12-20T04:51:35;5.30;;;3.00;;
1428;SDS011;708;51.442;7.016;2022-12-20T04:54:02;3.83;;;2.95;;
1428;SDS011;708;51.442;7.016;2022-12-20T04:56:28;5.57;;;2.93;;
1428;SDS011;708;51.442;7.016;2022-12-20T04:58:55;2.75;;;2.30;;
1428;SDS011;708;51.442;7.016;2022-12-20T05:01:24;7.85;;;3.25;;
1428;SDS011;708;51.442;7.016;2022-12-20T05:03:51;6.05;;;4.10;;
1428;SDS011;708;51.442;7.016;2022-12-20T05:06:18;4.50;;;3.03;;
1428;SDS011;708;51.442;7.016;2022-12-20T05:08:45;4.88;;;3.33;;
1428;SDS011;708;51.442;7.016;2022-12-20T05:11:12;3.40;;;3.10;;
1428;SDS011;708;51.442;7.016;2022-12-20T05:13:39;5.90;;;3.00;;
1428;SDS011;708;51.442;7.016;2022-12-20T05:16:06;4.72;;;2.92;;
1428;SDS011;708;51.442;7.016;2022-12-20T05:18:34;4.10;;;3.30;;
1428;SDS011;708;51.442;7.016;2022-12-20T05:21:01;3.50;;;3.20;;
1428;SDS011;708;51.442;7.016;2022-12-20T05:23:54;4.03;;;3.35;;
1428;SDS011;708;51.442;7.016;2022-12-20T05:26:38;4.28;;;3.63;;
1428;SDS011;708;51.442;7.016;2022-12-20T05:29:06;4.85;;;3.85;;
1428;SDS011;708;51.442;7.016;2022-12-20T05:31:33;9.25;;;3.75;;
1428;SDS011;708;51.442;7.016;2022-12-20T05:34:01;4.90;;;3.55;;
1428;SDS011;708;51.442;7.016;2022-12-20T05:36:28;3.95;;;3.58;;
1428;SDS011;708;51.442;7.016;2022-12-20T05:38:54;3.55;;;3.05;;
1428;SDS011;708;51.442;7.016;2022-12-20T05:41:21;3.60;;;3.17;;
1428;SDS011;708;51.442;7.016;2022-12-20T05:43:48;18.52;;;17.60;;
1428;SDS011;708;51.442;7.016;2022-12-20T05:46:14;86.43;;;80.93;;
1428;SDS011;708;51.442;7.016;2022-12-20T05:48:41;107.78;;;100.53;;
1428;SDS011;708;51.442;7.016;2022-12-20T05:51:09;107.63;;;100.40;;
1428;SDS011;708;51.442;7.016;2022-12-20T05:53:36;123.90;;;113.63;;
1428;SDS011;708;51.442;7.016;2022-12-20T05:56:03;127.65;;;116.40;;
1428;SDS011;708;51.442;7.016;2022-12-20T05:58:30;132.30;;;120.55;;
1428;SDS011;708;51.442;7.016;2022-12-20T06:00:58;129.00;;;118.22;;
1428;SDS011;708;51.442;7.016;2022-12-20T06:03:26;132.57;;;120.78;;
1428;SDS011;708;51.442;7.016;2022-12-20T06:05:52;147.68;;;132.60;;
1428;SDS011;708;51.442;7.016;2022-12-20T06:08:21;149.45;;;134.25;;
1428;SDS011;708;51.442;7.016;2022-12-20T06:10:48;146.80;;;131.38;;
1428;SDS011;708;51.442;7.016;2022-12-20T06:13:15;148.68;;;133.60;;
1428;SDS011;708;51.442;7.016;2022-12-20T06:15:43;138.02;;;125.72;;
1428;SDS011;708;51.442;7.016;2022-12-20T06:18:09;145.15;;;131.45;;
1428;SDS011;708;51.442;7.016;2022-12-20T06:20:36;140.93;;;127.25;;
1428;SDS011;708;51.442;7.016;2022-12-20T06:23:03;146.48;;;131.68;;
1428;SDS011;708;51.442;7.016;2022-12-20T06:25:32;146.45;;;131.15;;
1428;SDS011;708;51.442;7.016;2022-12-20T06:27:59;144.27;;;129.23;;
1428;SDS011;708;51.442;7.016;2022-12-20T06:30:26;141.50;;;127.10;;
1428;SDS011;708;51.442;7.016;2022-12-20T06:32:52;159.30;;;139.70;;
1428;SDS011;708;51.442;7.016;2022-12-20T06:35:19;135.35;;;123.10;;
1428;SDS011;708;51.442;7.016;2022-12-20T06:37:46;142.60;;;128.52;;
1428;SDS011;708;51.442;7.016;2022-12-20T06:40:13;149.25;;;134.05;;
1428;SDS011;708;51.442;7.016;2022-12-20T06:42:41;179.18;;;145.07;;
1428;SDS011;708;51.442;7.016;2022-12-20T06:45:09;227.35;;;155.63;;
1428;SDS011;708;51.442;7.016;2022-12-20T06:47:36;164.50;;;142.15;;
1428;SDS011;708;51.442;7.016;2022-12-20T06:50:04;143.95;;;129.07;;
1428;SDS011;708;51.442;7.016;2022-12-20T06:52:32;143.25;;;129.02;;
1428;SDS011;708;51.442;7.016;2022-12-20T06:54:59;151.32;;;135.05;;
1428;SDS011;708;51.442;7.016;2022-12-20T06:57:25;158.18;;;135.70;;
1428;SDS011;708;51.442;7.016;2022-12-20T06:59:57;158.65;;;141.55;;
1428;SDS011;708;51.442;7.016;2022-12-20T07:02:23;150.75;;;134.13;;
1428;SDS011;708;51.442;7.016;2022-12-20T07:04:50;162.38;;;138.23;;
1428;SDS011;708;51.442;7.016;2022-12-20T07:07:17;153.90;;;136.88;;
1428;SDS011;708;51.442;7.016;2022-12-20T07:09:44;156.18;;;141.75;;
1428;SDS011;708;51.442;7.016;2022-12-20T07:12:11;216.27;;;154.68;;
1428;SDS011;708;51.442;7.016;2022-12-20T07:14:38;242.48;;;162.77;;
1428;SDS011;708;51.442;7.016;2022-12-20T07:17:06;238.65;;;160.60;;
1428;SDS011;708;51.442;7.016;2022-12-20T07:19:33;228.13;;;158.77;;
1428;SDS011;708;51.442;7.016;2022-12-20T07:22:01;236.77;;;159.85;;
1428;SDS011;708;51.442;7.016;2022-12-20T07:24:28;211.10;;;154.57;;
1428;SDS011;708;51.442;7.016;2022-12-20T07:26:55;189.48;;;148.05;;
1428;SDS011;708;51.442;7.016;2022-12-20T07:29:22;211.57;;;153.10;;
1428;SDS011;708;51.442;7.016;2022-12-20T07:31:49;222.35;;;153.82;;
1428;SDS011;708;51.442;7.016;2022-12-20T07:34:18;165.52;;;140.88;;
1428;SDS011;708;51.442;7.016;2022-12-20T07:36:44;176.40;;;145.45;;
1428;SDS011;708;51.442;7.016;2022-12-20T07:39:11;171.63;;;141.90;;
1428;SDS011;708;51.442;7.016;2022-12-20T07:41:38;224.18;;;160.55;;
1428;SDS011;708;51.442;7.016;2022-12-20T07:44:06;230.68;;;159.02;;
1428;SDS011;708;51.442;7.016;2022-12-20T07:46:32;202.27;;;151.52;;
1428;SDS011;708;51.442;7.016;2022-12-20T07:48:59;205.48;;;152.52;;
1428;SDS011;708;51.442;7.016;2022-12-20T07:51:28;198.00;;;149.65;;
1428;SDS011;708;51.442;7.016;2022-12-20T07:53:58;200.00;;;151.75;;
1428;SDS011;708;51.442;7.016;2022-12-20T07:56:28;199.00;;;149.02;;
1428;SDS011;708;51.442;7.016;2022-12-20T07:58:57;203.68;;;152.70;;
1428;SDS011;708;51.442;7.016;2022-12-20T08:01:26;203.93;;;149.27;;
1428;SDS011;708;51.442;7.016;2022-12-20T08:03:54;202.25;;;152.80;;
1428;SDS011;708;51.442;7.016;2022-12-20T08:06:29;205.52;;;149.23;;
1428;SDS011;708;51.442;7.016;2022-12-20T08:08:57;180.50;;;147.93;;
1428;SDS011;708;51.442;7.016;2022-12-20T08:11:27;219.15;;;153.05;;
1428;SDS011;708;51.442;7.016;2022-12-20T08:13:55;222.10;;;155.52;;
1428;SDS011;708;51.442;7.016;2022-12-20T08:16:22;221.50;;;154.40;;
1428;SDS011;708;51.442;7.016;2022-12-20T08:18:49;245.10;;;162.85;;
1428;SDS011;708;51.442;7.016;2022-12-20T08:21:17;271.05;;;162.60;;
1428;SDS011;708;51.442;7.016;2022-12-20T08:23:45;275.92;;;166.98;;
1428;SDS011;708;51.442;7.016;2022-12-20T08:26:11;296.83;;;169.88;;
1428;SDS011;708;51.442;7.016;2022-12-20T08:28:38;232.80;;;158.10;;
1428;SDS011;708;51.442;7.016;2022-12-20T08:31:06;223.75;;;156.85;;
1428;SDS011;708;51.442;7.016;2022-12-20T08:33:35;207.70;;;152.60;;
1428;SDS011;708;51.442;7.016;2022-12-20T08:36:03;198.43;;;146.50;;
1428;SDS011;708;51.442;7.016;2022-12-20T08:38:31;248.43;;;164.15;;
1428;SDS011;708;51.442;7.016;2022-12-20T08:41:01;220.77;;;155.15;;
1428;SDS011;708;51.442;7.016;2022-12-20T08:43:29;246.73;;;155.82;;
1428;SDS011;708;51.442;7.016;2022-12-20T08:45:56;246.88;;;166.80;;
1428;SDS011;708;51.442;7.016;2022-12-20T08:48:23;189.95;;;147.15;;
1428;SDS011;708;51.442;7.016;2022-12-20T08:50:53;194.30;;;149.15;;
1428;SDS011;708;51.442;7.016;2022-12-20T08:53:21;196.10;;;150.55;;
1428;SDS011;708;51.442;7.016;2022-12-20T08:55:48;228.35;;;157.70;;
1428;SDS011;708;51.442;7.016;2022-12-20T08:58:16;196.70;;;148.43;;
1428;SDS011;708;51.442;7.016;2022-12-20T09:00:43;197.15;;;150.05;;
1428;SDS011;708;51.442;7.016;2022-12-20T09:03:09;190.43;;;157.18;;
1428;SDS011;708;51.442;7.016;2022-12-20T09:05:42;212.48;;;152.88;;
1428;SDS011;708;51.442;7.016;2022-12-20T09:08:09;191.15;;;157.30;;
1428;SDS011;708;51.442;7.016;2022-12-20T09:10:36;201.63;;;149.77;;
1428;SDS011;708;51.442;7.016;2022-12-20T09:13:03;199.13;;;152.68;;
1428;SDS011;708;51.442;7.016;2022-12-20T09:15:31;242.13;;;158.80;;
1428;SDS011;708;51.442;7.016;2022-12-20T09:17:59;207.88;;;153.05;;
1428;SDS011;708;51.442;7.016;2022-12-20T09:20:26;188.80;;;147.60;;
1428;SDS011;708;51.442;7.016;2022-12-20T09:22:53;188.63;;;148.65;;
1428;SDS011;708;51.442;7.016;2022-12-20T09:25:21;156.45;;;140.68;;
1428;SDS011;708;51.442;7.016;2022-12-20T09:27:48;198.55;;;149.43;;
1428;SDS011;708;51.442;7.016;2022-12-20T09:30:15;163.02;;;139.98;;
1428;SDS011;708;51.442;7.016;2022-12-20T09:32:43;179.65;;;161.88;;
1428;SDS011;708;51.442;7.016;2022-12-20T09:35:10;177.23;;;145.60;;
1428;SDS011;708;51.442;7.016;2022-12-20T09:37:37;155.15;;;139.52;;
1428;SDS011;708;51.442;7.016;2022-12-20T09:40:04;168.05;;;143.18;;
1428;SDS011;708;51.442;7.016;2022-12-20T09:42:33;195.15;;;150.32;;
1428;SDS011;708;51.442;7.016;2022-12-20T09:45:01;191.02;;;148.25;;
1428;SDS011;708;51.442;7.016;2022-12-20T09:47:31;178.20;;;144.38;;
1428;SDS011;708;51.442;7.016;2022-12-20T09:50:01;185.60;;;142.63;;
1428;SDS011;708;51.442;7.016;2022-12-20T09:52:38;123.38;;;112.07;;
1428;SDS011;708;51.442;7.016;2022-12-20T09:55:18;129.38;;;117.43;;
1428;SDS011;708;51.442;7.016;2022-12-20T09:57:55;138.95;;;124.97;;
1428;SDS011;708;51.442;7.016;2022-12-20T10:00:34;243.38;;;197.27;;
1428;SDS011;708;51.442;7.016;2022-12-20T10:03:07;202.10;;;176.27;;
1428;SDS011;708;51.442;7.016;2022-12-20T10:05:41;223.82;;;191.90;;
1428;SDS011;708;51.442;7.016;2022-12-20T10:08:16;227.60;;;182.55;;
1428;SDS011;708;51.442;7.016;2022-12-20T10:10:53;208.05;;;170.02;;
1428;SDS011;708;51.442;7.016;2022-12-20T10:13:27;228.93;;;170.35;;
1428;SDS011;708;51.442;7.016;2022-12-20T10:16:04;203.07;;;175.40;;
1428;SDS011;708;51.442;7.016;2022-12-20T10:18:44;215.20;;;171.57;;
1428;SDS011;708;51.442;7.016;2022-12-20T10:21:19;270.63;;;178.63;;
1428;SDS011;708;51.442;7.016;2022-12-20T10:23:59;228.27;;;170.90;;
1428;SDS011;708;51.442;7.016;2022-12-20T10:26:30;207.80;;;167.13;;
1428;SDS011;708;51.442;7.016;2022-12-20T10:28:59;186.93;;;166.60;;
1428;SDS011;708;51.442;7.016;2022-12-20T10:31:26;219.77;;;174.88;;
1428;SDS011;708;51.442;7.016;2022-12-20T10:33:53;187.75;;;167.02;;
1428;SDS011;708;51.442;7.016;2022-12-20T10:36:24;210.15;;;169.23;;
1428;SDS011;708;51.442;7.016;2022-12-20T10:38:53;195.02;;;167.05;;
1428;SDS011;708;51.442;7.016;2022-12-20T10:41:22;228.75;;;172.40;;
1428;SDS011;708;51.442;7.016;2022-12-20T10:43:52;233.27;;;170.68;;
1428;SDS011;708;51.442;7.016;2022-12-20T10:46:21;224.23;;;174.18;;
1428;SDS011;708;51.442;7.016;2022-12-20T10:48:48;202.85;;;174.27;;
1428;SDS011;708;51.442;7.016;2022-12-20T10:51:16;203.95;;;168.73;;
1428;SDS011;708;51.442;7.016;2022-12-20T10:53:53;194.15;;;169.27;;
1428;SDS011;708;51.442;7.016;2022-12-20T10:56:22;154.85;;;142.00;;
1428;SDS011;708;51.442;7.016;2022-12-20T10:58:53;146.95;;;137.75;;
1428;SDS011;708;51.442;7.016;2022-12-20T11:01:24;155.13;;;145.90;;
1428;SDS011;708;51.442;7.016;2022-12-20T11:03:56;169.40;;;156.93;;
1428;SDS011;708;51.442;7.016;2022-12-20T11:06:39;147.82;;;137.00;;
1428;SDS011;708;51.442;7.016;2022-12-20T11:09:21;170.50;;;158.18;;
1428;SDS011;708;51.442;7.016;2022-12-20T11:12:04;153.00;;;143.18;;
1428;SDS011;708;51.442;7.016;2022-12-20T11:14:33;153.85;;;144.68;;
1428;SDS011;708;51.442;7.016;2022-12-20T11:17:03;125.78;;;118.22;;
1428;SDS011;708;51.442;7.016;2022-12-20T11:19:46;1.20;;;0.60;;
1428;SDS011;708;51.442;7.016;2022-12-20T11:22:29;1.10;;;0.80;;
1428;SDS011;708;51.442;7.016;2022-12-20T11:25:10;1.38;;;0.73;;
1428;SDS011;708;51.442;7.016;2022-12-20T11:27:56;1.00;;;0.50;;
1428;SDS011;708;51.442;7.016;2022-12-20T11:30:36;1.05;;;0.50;;
1428;SDS011;708;51.442;7.016;2022-12-20T11:33:15;1.00;;;0.50;;
1428;SDS011;708;51.442;7.016;2022-12-20T11:35:59;1.00;;;0.50;;
1428;SDS011;708;51.442;7.016;2022-12-20T11:38:34;1.02;;;0.63;;
1428;SDS011;708;51.442;7.016;2022-12-20T11:41:12;1.10;;;0.70;;
1428;SDS011;708;51.442;7.016;2022-12-20T11:43:59;1.58;;;0.95;;
1428;SDS011;708;51.442;7.016;2022-12-20T11:46:49;1.00;;;0.50;;
1428;SDS011;708;51.442;7.016;2022-12-20T11:49:37;1.00;;;0.50;;
1428;SDS011;708;51.442;7.016;2022-12-20T11:52:23;1.10;;;0.70;;
1428;SDS011;708;51.442;7.016;2022-12-20T11:55:02;5.97;;;1.33;;
1428;SDS011;708;51.442;7.016;2022-12-20T11:57:45;1.23;;;0.80;;
1428;SDS011;708;51.442;7.016;2022-12-20T12:00:15;1.00;;;0.60;;
1428;SDS011;708;51.442;7.016;2022-12-20T12:02:47;1.00;;;0.50;;
1428;SDS011;708;51.442;7.016;2022-12-20T12:05:20;1.00;;;0.60;;
1428;SDS011;708;51.442;7.016;2022-12-20T12:07:53;1.00;;;0.50;;
1428;SDS011;708;51.442;7.016;2022-12-20T12:10:27;1.00;;;0.60;;
1428;SDS011;708;51.442;7.016;2022-12-20T12:12:59;1.00;;;0.50;;
1428;SDS011;708;51.442;7.016;2022-12-20T12:15:33;1.20;;;1.00;;
1428;SDS011;708;51.442;7.016;2022-12-20T12:18:06;1.20;;;0.80;;
1428;SDS011;708;51.442;7.016;2022-12-20T12:20:40;1.08;;;0.75;;
1428;SDS011;708;51.442;7.016;2022-12-20T12:23:15;1.33;;;0.80;;
1428;SDS011;708;51.442;7.016;2022-12-20T12:25:48;1.25;;;1.00;;
1428;SDS011;708;51.442;7.016;2022-12-20T12:28:16;1.13;;;0.60;;
1428;SDS011;708;51.442;7.016;2022-12-20T12:30:46;1.42;;;0.80;;
1428;SDS011;708;51.442;7.016;2022-12-20T12:33:25;1.00;;;0.60;;
1428;SDS011;708;51.442;7.016;2022-12-20T12:36:00;5.22;;;1.83;;
1428;SDS011;708;51.442;7.016;2022-12-20T12:38:55;1.45;;;1.35;;
1428;SDS011;708;51.442;7.016;2022-12-20T12:41:51;1.10;;;0.70;;
1428;SDS011;708;51.442;7.016;2022-12-20T12:44:46;1.10;;;0.80;;
1428;SDS011;708;51.442;7.016;2022-12-20T12:47:18;1.00;;;0.50;;
1428;SDS011;708;51.442;7.016;2022-12-20T12:49:49;1.00;;;0.50;;
1428;SDS011;708;51.442;7.016;2022-12-20T12:52:39;1.00;;;0.60;;
1428;SDS011;708;51.442;7.016;2022-12-20T13:01:03;1.00;;;0.55;;
1428;SDS011;708;51.442;7.016;2022-12-20T13:06:41;1.35;;;1.25;;
1428;SDS011;708;51.442;7.016;2022-12-20T13:09:37;1.20;;;0.60;;
1428;SDS011;708;51.442;7.016;2022-12-20T13:27:00;1.00;;;0.65;;
1428;SDS011;708;51.442;7.016;2022-12-20T13:29:32;1.00;;;0.50;;
1428;SDS011;708;51.442;7.016;2022-12-20T13:32:00;1.00;;;0.50;;
1428;SDS011;708;51.442;7.016;2022-12-20T13:34:38;1.00;;;0.50;;
1428;SDS011;708;51.442;7.016;2022-12-20T13:37:25;1.10;;;0.80;;
1428;SDS011;708;51.442;7.016;2022-12-20T13:39:52;1.17;;;0.93;;
1428;SDS011;708;51.442;7.016;2022-12-20T13:42:26;1.00;;;0.50;;
1428;SDS011;708;51.442;7.016;2022-12-20T13:45:01;1.00;;;0.70;;
1428;SDS011;708;51.442;7.016;2022-12-20T13:47:31;2.22;;;1.10;;
1428;SDS011;708;51.442;7.016;2022-12-20T13:50:17;1.10;;;0.80;;
1428;SDS011;708;51.442;7.016;2022-12-20T13:52:59;0.93;;;0.50;;
1428;SDS011;708;51.442;7.016;2022-12-20T13:55:35;1.50;;;1.25;;
1428;SDS011;708;51.442;7.016;2022-12-20T13:58:09;1.00;;;0.70;;
1428;SDS011;708;51.442;7.016;2022-12-20T14:00:38;3.83;;;2.05;;
1428;SDS011;708;51.442;7.016;2022-12-20T14:03:08;1.00;;;0.50;;
1428;SDS011;708;51.442;7.016;2022-12-20T14:05:43;1.10;;;0.90;;
1428;SDS011;708;51.442;7.016;2022-12-20T14:08:12;1.63;;;1.05;;
1428;SDS011;708;51.442;7.016;2022-12-20T14:10:41;1.95;;;1.45;;
1428;SDS011;708;51.442;7.016;2022-12-20T14:13:13;2.05;;;1.95;;
1428;SDS011;708;51.442;7.016;2022-12-20T14:15:45;3.67;;;1.08;;
1428;SDS011;708;51.442;7.016;2022-12-20T14:18:15;0.90;;;0.50;;
1428;SDS011;708;51.442;7.016;2022-12-20T14:20:45;1.52;;;0.95;;
1428;SDS011;708;51.442;7.016;2022-12-20T14:23:15;0.93;;;0.50;;
1428;SDS011;708;51.442;7.016;2022-12-20T14:25:48;0.90;;;0.50;;
1428;SDS011;708;51.442;7.016;2022-12-20T14:28:20;1.10;;;0.60;;
1428;SDS011;708;51.442;7.016;2022-12-20T14:30:54;4.40;;;2.25;;
1428;SDS011;708;51.442;7.016;2022-12-20T14:33:25;1.00;;;0.73;;
1428;SDS011;708;51.442;7.016;2022-12-20T14:36:07;1.00;;;0.60;;
1428;SDS011;708;51.442;7.016;2022-12-20T14:38:36;0.98;;;0.57;;
1428;SDS011;708;51.442;7.016;2022-12-20T14:43:54;2.13;;;1.77;;
1428;SDS011;708;51.442;7.016;2022-12-20T14:46:21;0.90;;;0.50;;
1428;SDS011;708;51.442;7.016;2022-12-20T14:48:48;1.10;;;0.60;;
1428;SDS011;708;51.442;7.016;2022-12-20T14:51:34;1.00;;;0.60;;
1428;SDS011;708;51.442;7.016;2022-12-20T14:54:01;1.65;;;0.70;;
1428;SDS011;708;51.442;7.016;2022-12-20T14:56:28;1.00;;;0.70;;
1428;SDS011;708;51.442;7.016;2022-12-20T14:59:05;1.58;;;1.33;;
1428;SDS011;708;51.442;7.016;2022-12-20T15:01:38;0.90;;;0.50;;
1428;SDS011;708;51.442;7.016;2022-12-20T15:04:18;1.63;;;0.80;;
1428;SDS011;708;51.442;7.016;2022-12-20T15:06:51;0.90;;;0.50;;
1428;SDS011;708;51.442;7.016;2022-12-20T15:09:18;0.90;;;0.50;;
1428;SDS011;708;51.442;7.016;2022-12-20T15:11:45;1.00;;;0.60;;
1428;SDS011;708;51.442;7.016;2022-12-20T15:14:20;1.13;;;0.52;;
1428;SDS011;708;51.442;7.016;2022-12-20T15:16:59;0.90;;;0.40;;
1428;SDS011;708;51.442;7.016;2022-12-20T15:19:26;1.45;;;0.90;;
1428;SDS011;708;51.442;7.016;2022-12-20T15:21:56;1.17;;;0.90;;
1428;SDS011;708;51.442;7.016;2022-12-20T15:24:24;0.90;;;0.50;;
1428;SDS011;708;51.442;7.016;2022-12-20T15:26:52;1.00;;;0.50;;
1428;SDS011;708;51.442;7.016;2022-12-20T15:29:20;12.93;;;7.20;;
1428;SDS011;708;51.442;7.016;2022-12-20T15:31:48;0.90;;;0.50;;
1428;SDS011;708;51.442;7.016;2022-12-20T15:34:17;0.90;;;0.55;;
1428;SDS011;708;51.442;7.016;2022-12-20T15:36:47;0.95;;;0.50;;
1428;SDS011;708;51.442;7.016;2022-12-20T15:39:15;1.00;;;0.55;;
1428;SDS011;708;51.442;7.016;2022-12-20T15:41:43;0.90;;;0.50;;
1428;SDS011;708;51.442;7.016;2022-12-20T15:44:13;1.00;;;0.70;;
1428;SDS011;708;51.442;7.016;2022-12-20T15:46:41;1.10;;;0.90;;
1428;SDS011;708;51.442;7.016;2022-12-20T15:49:11;0.90;;;0.50;;
1428;SDS011;708;51.442;7.016;2022-12-20T15:51:40;1.00;;;0.50;;
1428;SDS011;708;51.442;7.016;2022-12-20T15:54:09;0.90;;;0.50;;
1428;SDS011;708;51.442;7.016;2022-12-20T15:56:43;0.90;;;0.50;;
1428;SDS011;708;51.442;7.016;2022-12-20T15:59:10;1.25;;;0.98;;